Time;durP1;ratioP1;P1;durP2;ratioP2;P2;SDS_P1;SDS_P2;PMS_P1;PMS_P2;Temp;Humidity;BMP_temperature;BMP_pressure;BME280_temperature;BME280_humidity;BME280_pressure;Samples;Min_cycle;Max_cycle;Signal;HPM_P1;HPM_P2
2022/01/14 00:01:05;;;;;;;;;;;-1.00;99.50;;;;;;4238902;27;20314;-48
2022/01/14 00:03:07;;;;;;;;;;;-1.20;99.50;;;;;;4230377;28;19924;-46
2022/01/14 00:05:10;;;;;;;;;;;-1.10;99.10;;;;;;4240417;27;20523;-49
2022/01/14 00:07:12;;;;;;;;;;;-1.00;99.10;;;;;;4238881;27;19931;-46
2022/01/14 00:09:15;;;;;;;;;;;-0.80;97.90;;;;;;4231004;28;19981;-48
2022/01/14 00:11:18;;;;;;;;;;;-0.80;97.30;;;;;;4239252;28;19969;-46
2022/01/14 00:15:40;;;;;;;;;;;-0.40;96.80;;;;;;4236853;28;20224;-47
2022/01/14 00:17:42;;;;;;;;;;;-0.40;96.40;;;;;;4239233;28;19927;-47
2022/01/14 00:19:44;;;;;;;;;;;-0.50;96.60;;;;;;4241374;28;19974;-46
2022/01/14 00:21:46;;;;;;;;;;;-0.40;95.80;;;;;;4228597;28;19967;-48
2022/01/14 00:23:52;;;;;;;;;;;-0.30;95.80;;;;;;4236306;28;19927;-47
2022/01/14 00:33:05;;;;;;;;;;;-0.80;98.60;;;;;;4234478;28;19927;-47
2022/01/14 00:35:07;;;;;;;;;;;-0.90;98.50;;;;;;4243547;28;19989;-48
2022/01/14 00:37:09;;;;;;;;;;;-0.90;99.00;;;;;;4228455;28;19967;-46
2022/01/14 00:39:12;;;;;;;;;;;-1.00;99.40;;;;;;4222497;28;19958;-49
2022/01/14 00:41:14;;;;;;;;;;;-1.10;99.60;;;;;;4234278;28;20469;-46
2022/01/14 00:43:16;;;;;;;;;;;-1.20;99.90;;;;;;4243490;28;20666;-48
2022/01/14 00:45:18;;;;;;;;;;;-1.20;99.80;;;;;;4237451;28;19923;-47
2022/01/14 00:47:20;;;;;;;;;;;-1.20;99.90;;;;;;4242917;28;20022;-49
2022/01/14 00:49:22;;;;;;;;;;;-1.30;99.90;;;;;;4226458;28;19924;-48
2022/01/14 00:51:24;;;;;;;;;;;-1.30;99.90;;;;;;4239046;27;20026;-51
2022/01/14 00:53:26;;;;;;;;;;;-1.40;99.90;;;;;;4229945;28;19955;-48
2022/01/14 00:55:40;;;;;;;;;;;-1.40;99.90;;;;;;4231875;27;19989;-45
2022/01/14 00:59:53;;;;;;;;;;;-0.90;98.10;;;;;;4223397;28;19977;-51
2022/01/14 01:01:59;;;;;;;;;;;-0.70;97.90;;;;;;4222956;28;19927;-48
2022/01/14 01:04:01;;;;;;;;;;;-0.60;97.90;;;;;;4235406;27;20372;-47
2022/01/14 01:06:03;;;;;;;;;;;-0.80;98.70;;;;;;4215043;28;19924;-49
2022/01/14 01:08:10;;;;;;;;;;;-0.90;99.10;;;;;;4239526;27;19963;-48
2022/01/14 01:10:12;;;;;;;;;;;-1.10;99.80;;;;;;4241889;27;19927;-47
2022/01/14 01:12:27;;;;;;;;;;;-1.20;99.90;;;;;;4238442;27;20043;-51
2022/01/14 01:14:39;;;;;;;;;;;-1.30;99.90;;;;;;4245044;27;19923;-49
2022/01/14 01:16:41;;;;;;;;;;;-1.30;99.90;;;;;;4236364;27;19935;-47
2022/01/14 01:18:43;;;;;;;;;;;-1.30;99.90;;;;;;4235682;27;20387;-48
2022/01/14 01:20:44;;;;;;;;;;;-1.30;99.90;;;;;;4217198;27;19928;-47
2022/01/14 01:22:49;;;;;;;;;;;-1.20;99.80;;;;;;4234243;27;19973;-48
2022/01/14 01:24:52;;;;;;;;;;;-1.10;99.40;;;;;;4234477;27;19935;-49
2022/01/14 01:26:55;;;;;;;;;;;-1.10;98.70;;;;;;4242701;27;19923;-49
2022/01/14 01:33:03;;;;;;;;;;;-0.80;98.20;;;;;;4233331;27;19930;-47
2022/01/14 01:35:05;;;;;;;;;;;-0.80;98.70;;;;;;4231039;27;19946;-49
2022/01/14 01:37:07;;;;;;;;;;;-1.00;99.40;;;;;;4236483;27;19935;-45
2022/01/14 01:39:11;;;;;;;;;;;-1.20;99.90;;;;;;4237631;27;19932;-46
2022/01/14 01:41:17;;;;;;;;;;;-1.40;99.90;;;;;;4232118;27;19923;-48
2022/01/14 01:43:24;;;;;;;;;;;-1.50;99.90;;;;;;4211112;28;19928;-49
2022/01/14 01:45:27;;;;;;;;;;;-1.60;99.90;;;;;;4236498;27;19987;-46
2022/01/14 01:47:29;;;;;;;;;;;-1.60;99.90;;;;;;4243979;27;19986;-47
2022/01/14 01:49:32;;;;;;;;;;;-1.70;99.90;;;;;;4236708;27;19923;-46
2022/01/14 01:51:35;;;;;;;;;;;-1.60;99.90;;;;;;4244312;27;19941;-47
2022/01/14 01:53:37;;;;;;;;;;;-1.50;99.90;;;;;;4232948;27;20618;-48
2022/01/14 01:55:39;;;;;;;;;;;-1.40;99.90;;;;;;4240799;27;19923;-47
2022/01/14 01:57:43;;;;;;;;;;;-1.30;99.90;;;;;;4236384;27;20018;-47
2022/01/14 01:59:44;;;;;;;;;;;-1.30;99.90;;;;;;4244592;27;19973;-46
2022/01/14 02:01:46;;;;;;;;;;;-1.20;99.60;;;;;;4234019;27;20018;-50
2022/01/14 02:03:48;;;;;;;;;;;-1.00;99.00;;;;;;4243469;27;19923;-48
2022/01/14 02:05:50;;;;;;;;;;;-1.00;98.80;;;;;;4235918;27;19976;-47
2022/01/14 02:07:53;;;;;;;;;;;-1.10;99.50;;;;;;4244041;27;20384;-49
2022/01/14 02:09:55;;;;;;;;;;;-1.30;99.90;;;;;;4238124;27;20435;-48
2022/01/14 02:11:57;;;;;;;;;;;-1.60;99.90;;;;;;4242779;27;19952;-49
2022/01/14 02:14:04;;;;;;;;;;;-1.80;99.90;;;;;;4231226;27;20407;-48
2022/01/14 02:22:41;;;;;;;;;;;-1.50;99.90;;;;;;4230579;27;19931;-49
2022/01/14 02:24:57;;;;;;;;;;;-1.50;99.90;;;;;;4237274;27;20647;-46
2022/01/14 02:26:59;;;;;;;;;;;-1.30;99.90;;;;;;4242852;27;20412;-47
2022/01/14 02:29:01;;;;;;;;;;;-1.20;99.90;;;;;;4236147;27;19931;-49
2022/01/14 02:31:03;;;;;;;;;;;-1.10;99.80;;;;;;4225946;28;19934;-47
2022/01/14 02:33:05;;;;;;;;;;;-1.10;99.60;;;;;;4239152;27;20379;-48
2022/01/14 02:35:08;;;;;;;;;;;-1.10;99.90;;;;;;4228995;28;19928;-48
2022/01/14 02:37:19;;;;;;;;;;;-1.00;99.20;;;;;;4235596;27;19924;-47
2022/01/14 02:39:21;;;;;;;;;;;-1.00;99.40;;;;;;4233450;27;20317;-47
2022/01/14 02:41:23;;;;;;;;;;;-1.00;99.20;;;;;;4237625;27;19927;-46
2022/01/14 02:43:26;;;;;;;;;;;-0.90;98.90;;;;;;4240264;27;20511;-45
2022/01/14 02:45:31;;;;;;;;;;;-1.00;99.10;;;;;;4238917;27;19927;-48
2022/01/14 02:47:33;;;;;;;;;;;-1.00;99.60;;;;;;4228443;28;19947;-48
2022/01/14 02:49:37;;;;;;;;;;;-1.30;99.90;;;;;;4234451;27;20429;-47
2022/01/14 02:51:39;;;;;;;;;;;-1.40;99.90;;;;;;4229814;27;20018;-48
2022/01/14 02:53:56;;;;;;;;;;;-1.50;99.90;;;;;;4233703;27;20547;-46
2022/01/14 02:56:02;;;;;;;;;;;-1.70;99.90;;;;;;4243533;27;19949;-48
2022/01/14 02:58:04;;;;;;;;;;;-1.80;99.90;;;;;;4232249;27;20284;-48
2022/01/14 03:00:07;;;;;;;;;;;-1.90;99.90;;;;;;4244822;27;19927;-46
2022/01/14 03:02:12;;;;;;;;;;;-2.00;99.90;;;;;;4235122;27;19928;-48
2022/01/14 03:04:15;;;;;;;;;;;-2.00;99.90;;;;;;4243343;27;19967;-49
2022/01/14 03:06:17;;;;;;;;;;;-2.10;99.90;;;;;;4233394;27;19962;-45
2022/01/14 03:08:20;;;;;;;;;;;-2.10;99.90;;;;;;4242681;27;20239;-46
2022/01/14 03:10:22;;;;;;;;;;;-2.20;99.90;;;;;;4236640;27;19989;-46
2022/01/14 03:12:24;;;;;;;;;;;-2.20;99.90;;;;;;4241871;27;21238;-47
2022/01/14 03:14:26;;;;;;;;;;;-2.30;99.90;;;;;;4234233;27;19935;-47
2022/01/14 03:16:29;;;;;;;;;;;-2.30;99.90;;;;;;4238199;27;19927;-46
2022/01/14 03:18:44;;;;;;;;;;;-2.30;99.90;;;;;;4233892;27;19967;-47
2022/01/14 03:20:50;;;;;;;;;;;-2.30;99.90;;;;;;4222762;28;20432;-49
2022/01/14 03:23:03;;;;;;;;;;;-2.40;99.90;;;;;;4238320;27;19924;-45
2022/01/14 03:27:27;;;;;;;;;;;-2.30;99.90;;;;;;4239771;27;20302;-47
2022/01/14 03:29:29;;;;;;;;;;;-2.30;99.90;;;;;;4234719;27;19928;-46
2022/01/14 03:31:31;;;;;;;;;;;-2.20;99.90;;;;;;4243425;27;19931;-46
2022/01/14 03:33:34;;;;;;;;;;;-2.20;99.90;;;;;;4237543;27;19924;-46
2022/01/14 03:35:36;;;;;;;;;;;-2.10;99.90;;;;;;4210284;28;19959;-48
2022/01/14 03:37:38;;;;;;;;;;;-2.10;99.90;;;;;;4233066;27;19962;-45
2022/01/14 03:39:40;;;;;;;;;;;-2.20;99.90;;;;;;4230221;27;19965;-47
2022/01/14 03:41:42;;;;;;;;;;;-2.30;99.90;;;;;;4235982;27;19932;-46
2022/01/14 03:43:44;;;;;;;;;;;-2.20;99.90;;;;;;4232808;27;20047;-49
2022/01/14 03:45:49;;;;;;;;;;;-2.10;99.90;;;;;;4233591;27;19932;-47
2022/01/14 03:47:51;;;;;;;;;;;-1.90;99.90;;;;;;4227698;28;19970;-48
2022/01/14 03:49:53;;;;;;;;;;;-1.80;99.90;;;;;;4232698;27;19932;-47
2022/01/14 03:51:54;;;;;;;;;;;-1.80;99.90;;;;;;4228604;27;19924;-49
2022/01/14 03:53:57;;;;;;;;;;;-2.00;99.90;;;;;;4232500;27;20582;-49
2022/01/14 03:55:59;;;;;;;;;;;-2.00;99.90;;;;;;4243814;27;19959;-45
2022/01/14 03:58:12;;;;;;;;;;;-1.90;99.90;;;;;;4232788;27;19928;-45
2022/01/14 04:00:14;;;;;;;;;;;-1.80;99.90;;;;;;4229586;28;19924;-46
2022/01/14 04:02:16;;;;;;;;;;;-1.40;99.90;;;;;;4232282;27;19932;-47
2022/01/14 04:04:19;;;;;;;;;;;-1.40;99.90;;;;;;4244628;27;20474;-47
2022/01/14 04:06:21;;;;;;;;;;;-1.40;99.90;;;;;;4232525;27;19963;-48
2022/01/14 04:08:23;;;;;;;;;;;-1.20;99.90;;;;;;4243722;27;19923;-46
2022/01/14 04:10:26;;;;;;;;;;;-1.30;99.90;;;;;;4231601;28;19971;-48
2022/01/14 04:16:51;;;;;;;;;;;-1.60;99.90;;;;;;4241387;28;20019;-46
2022/01/14 04:18:53;;;;;;;;;;;-2.00;99.90;;;;;;4229680;28;19940;-49
2022/01/14 04:20:55;;;;;;;;;;;-2.20;99.90;;;;;;4228841;28;19924;-48
2022/01/14 04:22:57;;;;;;;;;;;-2.20;99.90;;;;;;4232094;28;19928;-47
2022/01/14 04:24:59;;;;;;;;;;;-2.10;99.90;;;;;;4236088;27;20358;-47
2022/01/14 04:27:00;;;;;;;;;;;-2.20;99.90;;;;;;4234386;27;19945;-45
2022/01/14 04:29:02;;;;;;;;;;;-2.10;99.90;;;;;;4244602;27;19963;-46
2022/01/14 04:31:06;;;;;;;;;;;-2.10;99.90;;;;;;4238429;27;19957;-47
2022/01/14 04:33:08;;;;;;;;;;;-2.20;99.90;;;;;;4244635;27;19959;-47
2022/01/14 04:35:10;;;;;;;;;;;-2.20;99.90;;;;;;4239111;27;19935;-46
2022/01/14 04:37:12;;;;;;;;;;;-2.20;99.90;;;;;;4224704;28;19928;-45
2022/01/14 04:39:14;;;;;;;;;;;-2.30;99.90;;;;;;4240547;27;19958;-49
2022/01/14 04:41:16;;;;;;;;;;;-2.30;99.90;;;;;;4239308;27;20103;-47
2022/01/14 04:43:20;;;;;;;;;;;-2.30;99.90;;;;;;4239484;27;20311;-48
2022/01/14 04:47:44;;;;;;;;;;;-2.30;99.90;;;;;;4231917;27;20291;-47
2022/01/14 04:49:46;;;;;;;;;;;-2.30;99.90;;;;;;4241599;27;19934;-48
2022/01/14 04:51:48;;;;;;;;;;;-2.20;99.90;;;;;;4231142;27;19924;-47
2022/01/14 04:53:50;;;;;;;;;;;-2.30;99.90;;;;;;4235623;27;19928;-48
2022/01/14 04:55:52;;;;;;;;;;;-2.20;99.90;;;;;;4229658;27;19924;-48
2022/01/14 04:57:55;;;;;;;;;;;-2.20;99.90;;;;;;4242559;27;19927;-49
2022/01/14 04:59:57;;;;;;;;;;;-2.00;99.90;;;;;;4242322;27;19974;-48
2022/01/14 05:01:59;;;;;;;;;;;-2.00;99.90;;;;;;4241977;27;19965;-46
2022/01/14 05:04:01;;;;;;;;;;;-2.00;99.90;;;;;;4230554;27;19924;-47
2022/01/14 05:06:06;;;;;;;;;;;-2.00;99.90;;;;;;4231404;27;19927;-46
2022/01/14 05:08:11;;;;;;;;;;;-2.00;99.90;;;;;;4243469;27;19930;-48
2022/01/14 05:10:35;;;;;;;;;;;-1.90;99.90;;;;;;4237764;27;19924;-46
2022/01/14 05:12:40;;;;;;;;;;;-1.90;99.90;;;;;;4245728;27;19931;-48
2022/01/14 05:14:42;;;;;;;;;;;-2.00;99.90;;;;;;4235612;27;19928;-47
2022/01/14 05:16:44;;;;;;;;;;;-1.90;99.90;;;;;;4244882;27;19923;-48
2022/01/14 05:18:46;;;;;;;;;;;-1.90;99.90;;;;;;4233592;27;19938;-47
2022/01/14 05:20:48;;;;;;;;;;;-1.90;99.90;;;;;;4246589;27;20344;-46
2022/01/14 05:22:50;;;;;;;;;;;-1.90;99.90;;;;;;4232833;27;20010;-49
2022/01/14 05:24:52;;;;;;;;;;;-1.90;99.90;;;;;;4245807;27;19981;-49
2022/01/14 05:26:54;;;;;;;;;;;-1.90;99.90;;;;;;4232256;27;19927;-48
2022/01/14 05:28:56;;;;;;;;;;;-1.90;99.90;;;;;;4240291;27;19923;-46
2022/01/14 05:30:58;;;;;;;;;;;-1.90;99.90;;;;;;4236186;27;20479;-47
2022/01/14 05:33:00;;;;;;;;;;;-1.80;99.90;;;;;;4230044;27;19984;-47
2022/01/14 05:35:03;;;;;;;;;;;-1.70;99.90;;;;;;4235144;27;19923;-47
2022/01/14 05:37:05;;;;;;;;;;;-1.70;99.90;;;;;;4229043;28;19928;-47
2022/01/14 05:39:07;;;;;;;;;;;-1.80;99.90;;;;;;4233035;27;19927;-48
2022/01/14 05:41:10;;;;;;;;;;;-1.90;99.90;;;;;;4238998;27;19969;-49
2022/01/14 05:43:11;;;;;;;;;;;-2.10;99.90;;;;;;4216758;28;19924;-49
2022/01/14 05:45:14;;;;;;;;;;;-2.40;99.90;;;;;;4246411;27;19923;-49
2022/01/14 05:47:16;;;;;;;;;;;-2.40;99.90;;;;;;4234746;27;19932;-47
2022/01/14 05:49:18;;;;;;;;;;;-2.50;99.90;;;;;;4233627;27;19935;-47
2022/01/14 05:51:20;;;;;;;;;;;-2.60;99.90;;;;;;4233357;27;20419;-47
2022/01/14 05:53:22;;;;;;;;;;;-2.60;99.90;;;;;;4245983;27;19959;-47
2022/01/14 05:55:24;;;;;;;;;;;-2.60;99.90;;;;;;4236044;27;20011;-49
2022/01/14 05:57:26;;;;;;;;;;;-2.60;99.90;;;;;;4236800;27;20484;-47
2022/01/14 05:59:28;;;;;;;;;;;-2.60;99.90;;;;;;4235066;27;19967;-46
2022/01/14 06:01:33;;;;;;;;;;;-2.50;99.90;;;;;;4244235;27;19927;-47
2022/01/14 06:03:35;;;;;;;;;;;-2.70;99.90;;;;;;4236054;27;19928;-47
2022/01/14 06:05:37;;;;;;;;;;;-2.90;99.90;;;;;;4244786;27;20449;-48
2022/01/14 06:07:39;;;;;;;;;;;-2.90;99.90;;;;;;4232820;27;19928;-45
2022/01/14 06:09:40;;;;;;;;;;;-2.90;99.90;;;;;;4231124;27;19933;-46
2022/01/14 06:11:42;;;;;;;;;;;-2.80;99.90;;;;;;4235627;27;20451;-46
2022/01/14 06:13:45;;;;;;;;;;;-2.70;99.90;;;;;;4244046;27;19923;-45
2022/01/14 06:15:47;;;;;;;;;;;-2.60;99.90;;;;;;4232971;27;20393;-48
2022/01/14 06:17:49;;;;;;;;;;;-2.40;99.90;;;;;;4242812;27;19955;-48
2022/01/14 06:19:50;;;;;;;;;;;-2.20;99.90;;;;;;4234250;27;20034;-50
2022/01/14 06:21:56;;;;;;;;;;;-2.10;99.90;;;;;;4237023;27;19993;-46
2022/01/14 06:23:58;;;;;;;;;;;-2.00;99.90;;;;;;4233532;27;19924;-49
2022/01/14 06:26:00;;;;;;;;;;;-2.00;99.90;;;;;;4235442;27;20358;-47
2022/01/14 06:28:02;;;;;;;;;;;-1.90;99.90;;;;;;4235786;27;19981;-48
2022/01/14 06:30:05;;;;;;;;;;;-2.00;99.90;;;;;;4243769;27;19930;-46
2022/01/14 06:32:07;;;;;;;;;;;-2.00;99.90;;;;;;4237682;27;20809;-46
2022/01/14 06:34:09;;;;;;;;;;;-2.00;99.90;;;;;;4245158;27;19927;-47
2022/01/14 06:36:11;;;;;;;;;;;-2.00;99.90;;;;;;4231507;27;19978;-47
2022/01/14 06:38:13;;;;;;;;;;;-2.10;99.90;;;;;;4230070;27;19953;-48
2022/01/14 06:40:15;;;;;;;;;;;-2.10;99.90;;;;;;4233374;27;19924;-47
2022/01/14 06:42:21;;;;;;;;;;;-2.20;99.90;;;;;;4238056;27;19953;-49
2022/01/14 06:44:23;;;;;;;;;;;-2.30;99.90;;;;;;4231365;27;19927;-47
2022/01/14 06:46:25;;;;;;;;;;;-2.40;99.90;;;;;;4242326;27;19924;-45
2022/01/14 06:48:27;;;;;;;;;;;-2.50;99.90;;;;;;4230747;27;20307;-46
2022/01/14 06:50:29;;;;;;;;;;;-2.50;99.90;;;;;;4212332;28;19936;-45
2022/01/14 06:52:31;;;;;;;;;;;-2.50;99.90;;;;;;4237131;27;19927;-48
2022/01/14 06:54:33;;;;;;;;;;;-2.40;99.90;;;;;;4241548;27;20296;-48
2022/01/14 06:56:35;;;;;;;;;;;-2.50;99.90;;;;;;4230165;27;19966;-48
2022/01/14 06:58:40;;;;;;;;;;;-2.50;99.90;;;;;;4238647;27;20578;-46
2022/01/14 07:00:41;;;;;;;;;;;-2.50;99.90;;;;;;4234437;27;20654;-46
2022/01/14 07:02:43;;;;;;;;;;;-2.40;99.90;;;;;;4240892;27;19928;-47
2022/01/14 07:04:46;;;;;;;;;;;-2.30;99.90;;;;;;4229886;27;19966;-49
2022/01/14 07:06:48;;;;;;;;;;;-2.10;99.90;;;;;;4230916;27;19927;-50
2022/01/14 07:08:49;;;;;;;;;;;-1.90;99.90;;;;;;4231780;27;19970;-47
2022/01/14 07:10:51;;;;;;;;;;;-1.90;99.90;;;;;;4238611;27;19973;-46
2022/01/14 07:12:53;;;;;;;;;;;-1.90;99.90;;;;;;4237899;27;19955;-45
2022/01/14 07:14:56;;;;;;;;;;;-2.00;99.90;;;;;;4239443;27;20003;-49
2022/01/14 07:16:58;;;;;;;;;;;-2.10;99.90;;;;;;4237193;27;19934;-46
2022/01/14 07:19:01;;;;;;;;;;;-2.20;99.90;;;;;;4240354;27;20014;-46
2022/01/14 07:21:03;;;;;;;;;;;-2.20;99.90;;;;;;4226917;27;19924;-47
2022/01/14 07:23:05;;;;;;;;;;;-2.20;99.90;;;;;;4232672;27;20002;-46
2022/01/14 07:25:07;;;;;;;;;;;-2.20;99.90;;;;;;4210921;28;19932;-46
2022/01/14 07:27:10;;;;;;;;;;;-2.20;99.90;;;;;;4214275;28;20676;-47
2022/01/14 07:29:13;;;;;;;;;;;-2.10;99.90;;;;;;4237762;27;19931;-47
2022/01/14 07:31:15;;;;;;;;;;;-2.10;99.90;;;;;;4240426;27;20000;-48
2022/01/14 07:33:17;;;;;;;;;;;-2.00;99.90;;;;;;4238177;27;19927;-46
2022/01/14 07:35:18;;;;;;;;;;;-1.90;99.90;;;;;;4238457;27;19967;-48
2022/01/14 07:37:20;;;;;;;;;;;-1.80;99.90;;;;;;4241085;27;20014;-47
2022/01/14 07:39:23;;;;;;;;;;;-1.70;99.90;;;;;;4237207;27;19967;-47
2022/01/14 07:41:25;;;;;;;;;;;-1.60;99.90;;;;;;4238692;27;19924;-47
2022/01/14 07:43:27;;;;;;;;;;;-1.50;99.90;;;;;;4239180;27;19954;-46
2022/01/14 07:45:29;;;;;;;;;;;-1.40;99.90;;;;;;4234314;27;19923;-46
2022/01/14 07:47:32;;;;;;;;;;;-1.30;99.90;;;;;;4239208;27;19934;-45
2022/01/14 07:49:35;;;;;;;;;;;-1.30;99.90;;;;;;4227971;27;19931;-47
2022/01/14 07:51:37;;;;;;;;;;;-1.20;99.90;;;;;;4232059;27;19938;-46
2022/01/14 07:53:40;;;;;;;;;;;-1.20;99.90;;;;;;4228173;27;19928;-47
2022/01/14 07:55:42;;;;;;;;;;;-1.20;99.90;;;;;;4229054;27;19935;-47
2022/01/14 07:57:44;;;;;;;;;;;-1.20;99.90;;;;;;4231118;27;19963;-49
2022/01/14 07:59:46;;;;;;;;;;;-1.20;99.90;;;;;;4237390;27;19959;-49
2022/01/14 08:01:50;;;;;;;;;;;-1.20;99.90;;;;;;4222492;28;20018;-47
2022/01/14 08:03:52;;;;;;;;;;;-1.10;99.90;;;;;;4236574;27;20465;-46
2022/01/14 08:05:57;;;;;;;;;;;-1.10;99.90;;;;;;4227405;28;20023;-47
2022/01/14 08:08:03;;;;;;;;;;;-1.10;99.90;;;;;;4233817;27;19943;-47
2022/01/14 08:10:09;;;;;;;;;;;-1.00;99.90;;;;;;4242610;27;20466;-50
2022/01/14 08:12:12;;;;;;;;;;;-0.90;99.90;;;;;;4236040;27;19955;-48
2022/01/14 08:14:14;;;;;;;;;;;-0.80;99.90;;;;;;4232334;28;19959;-49
2022/01/14 08:16:16;;;;;;;;;;;-0.70;99.90;;;;;;4235442;28;20299;-48
2022/01/14 08:18:18;;;;;;;;;;;-0.70;99.90;;;;;;4238507;28;20059;-47
2022/01/14 08:20:20;;;;;;;;;;;-0.80;99.90;;;;;;4214946;28;19932;-49
2022/01/14 08:22:22;;;;;;;;;;;-0.70;99.90;;;;;;4243595;28;19963;-49
2022/01/14 08:24:24;;;;;;;;;;;-0.80;99.90;;;;;;4234323;28;20300;-48
2022/01/14 08:26:26;;;;;;;;;;;-0.80;99.90;;;;;;4243364;28;19927;-49
2022/01/14 08:28:28;;;;;;;;;;;-0.80;99.90;;;;;;4233584;28;19927;-49
2022/01/14 08:30:29;;;;;;;;;;;-0.80;99.90;;;;;;4243519;28;19923;-50
2022/01/14 08:32:32;;;;;;;;;;;-0.60;99.90;;;;;;4232495;28;19934;-47
2022/01/14 08:34:34;;;;;;;;;;;-0.60;99.90;;;;;;4243650;28;19966;-50
2022/01/14 08:36:36;;;;;;;;;;;-0.50;99.90;;;;;;4231119;28;20425;-48
2022/01/14 08:38:38;;;;;;;;;;;-0.40;99.90;;;;;;4209117;28;19986;-48
2022/01/14 08:40:40;;;;;;;;;;;-0.30;99.90;;;;;;4234529;28;19930;-50
2022/01/14 08:42:45;;;;;;;;;;;-0.30;99.90;;;;;;4230458;28;19928;-49
2022/01/14 08:44:47;;;;;;;;;;;-0.20;99.90;;;;;;4233475;28;20406;-50
2022/01/14 08:46:49;;;;;;;;;;;-0.10;99.90;;;;;;4214230;28;19928;-49
2022/01/14 08:48:51;;;;;;;;;;;0.10;99.90;;;;;;4231759;28;19938;-47
2022/01/14 08:50:53;;;;;;;;;;;0.20;99.90;;;;;;4226759;28;19950;-50
2022/01/14 08:52:55;;;;;;;;;;;0.30;99.90;;;;;;4232923;28;19967;-46
2022/01/14 08:54:57;;;;;;;;;;;0.40;99.90;;;;;;4226847;28;19927;-50
2022/01/14 08:57:02;;;;;;;;;;;0.60;99.90;;;;;;4231771;28;19977;-51
2022/01/14 08:59:04;;;;;;;;;;;0.70;99.90;;;;;;4223932;28;19924;-50
2022/01/14 09:01:06;;;;;;;;;;;0.80;99.90;;;;;;4231650;28;19932;-50
2022/01/14 09:03:08;;;;;;;;;;;0.90;99.90;;;;;;4243503;28;20377;-50
2022/01/14 09:05:11;;;;;;;;;;;1.10;99.90;;;;;;4230243;28;19924;-50
2022/01/14 09:07:12;;;;;;;;;;;1.20;99.90;;;;;;4227305;28;20019;-49
2022/01/14 09:09:14;;;;;;;;;;;1.40;99.90;;;;;;4232226;28;19924;-51
2022/01/14 09:11:16;;;;;;;;;;;1.40;99.90;;;;;;4228687;27;19928;-50
2022/01/14 09:13:18;;;;;;;;;;;1.30;99.90;;;;;;4235676;27;20006;-50
2022/01/14 09:15:20;;;;;;;;;;;1.50;99.90;;;;;;4239052;27;20453;-50
2022/01/14 09:17:22;;;;;;;;;;;1.50;99.90;;;;;;4234641;27;19928;-49
2022/01/14 09:19:24;;;;;;;;;;;1.60;99.90;;;;;;4231048;27;19928;-50
2022/01/14 09:21:26;;;;;;;;;;;1.80;99.90;;;;;;4237961;27;19930;-50
2022/01/14 09:23:29;;;;;;;;;;;2.10;99.90;;;;;;4245001;27;20370;-49
2022/01/14 09:25:31;;;;;;;;;;;2.30;99.90;;;;;;4235598;27;20399;-51
2022/01/14 09:27:33;;;;;;;;;;;2.40;99.90;;;;;;4245071;27;19927;-48
2022/01/14 09:29:35;;;;;;;;;;;2.60;99.90;;;;;;4236686;27;19924;-51
2022/01/14 09:31:38;;;;;;;;;;;2.70;99.90;;;;;;4246010;27;19927;-50
2022/01/14 09:33:43;;;;;;;;;;;2.70;99.90;;;;;;4237259;27;19932;-49
2022/01/14 09:35:46;;;;;;;;;;;2.80;99.90;;;;;;4244648;27;19968;-48
2022/01/14 09:37:49;;;;;;;;;;;2.80;99.90;;;;;;4233469;27;19966;-51
2022/01/14 09:39:51;;;;;;;;;;;3.00;99.90;;;;;;4232093;27;19927;-50
2022/01/14 09:41:53;;;;;;;;;;;3.10;99.90;;;;;;4236793;27;19927;-50
2022/01/14 09:43:55;;;;;;;;;;;3.10;99.90;;;;;;4243115;27;19974;-51
2022/01/14 09:45:57;;;;;;;;;;;3.20;99.90;;;;;;4231352;27;20003;-51
2022/01/14 09:47:59;;;;;;;;;;;3.50;99.90;;;;;;4241601;27;19927;-51
2022/01/14 09:50:01;;;;;;;;;;;3.70;99.90;;;;;;4237431;27;19977;-48
2022/01/14 09:52:03;;;;;;;;;;;3.80;99.90;;;;;;4243799;27;19927;-51
2022/01/14 09:54:06;;;;;;;;;;;3.80;99.90;;;;;;4231455;27;19924;-51
2022/01/14 09:56:08;;;;;;;;;;;4.30;99.90;;;;;;4234740;27;19934;-51
2022/01/14 09:58:10;;;;;;;;;;;4.60;99.90;;;;;;4229965;27;20463;-51
2022/01/14 10:00:12;;;;;;;;;;;4.60;99.90;;;;;;4235312;27;20010;-50
2022/01/14 10:02:30;;;;;;;;;;;4.60;99.90;;;;;;4238588;27;20350;-50
2022/01/14 10:04:32;;;;;;;;;;;4.70;99.90;;;;;;4238217;27;20402;-50
2022/01/14 10:06:35;;;;;;;;;;;4.80;99.90;;;;;;4240257;27;19930;-50
2022/01/14 10:08:36;;;;;;;;;;;4.90;99.90;;;;;;4243014;27;19923;-50
2022/01/14 10:10:42;;;;;;;;;;;5.10;99.90;;;;;;4229563;27;19927;-51
2022/01/14 10:12:44;;;;;;;;;;;5.40;99.90;;;;;;4234060;27;20013;-51
2022/01/14 10:14:56;;;;;;;;;;;5.60;99.90;;;;;;4229636;27;20007;-51
2022/01/14 10:16:59;;;;;;;;;;;5.70;99.90;;;;;;4232389;27;19967;-52
2022/01/14 10:19:02;;;;;;;;;;;6.00;99.70;;;;;;4242218;27;19924;-50
2022/01/14 10:21:06;;;;;;;;;;;6.20;99.60;;;;;;4235693;27;19953;-49
2022/01/14 10:23:08;;;;;;;;;;;6.40;99.00;;;;;;4242881;27;20022;-50
2022/01/14 10:25:11;;;;;;;;;;;6.60;99.30;;;;;;4237716;27;20438;-51
2022/01/14 10:27:13;;;;;;;;;;;6.80;99.20;;;;;;4228730;28;20334;-51
2022/01/14 10:29:24;;;;;;;;;;;7.00;98.70;;;;;;4233776;27;19927;-52
2022/01/14 10:31:37;;;;;;;;;;;7.20;98.00;;;;;;4234751;27;19966;-51
2022/01/14 10:33:39;;;;;;;;;;;7.40;98.00;;;;;;4234879;27;19986;-49
2022/01/14 10:35:42;;;;;;;;;;;7.60;98.70;;;;;;4245209;27;19966;-50
2022/01/14 10:37:44;;;;;;;;;;;7.60;99.10;;;;;;4233843;27;19928;-51
2022/01/14 10:39:53;;;;;;;;;;;7.70;98.60;;;;;;4228541;27;19952;-51
2022/01/14 10:41:56;;;;;;;;;;;7.80;98.30;;;;;;4213323;28;19928;-51
2022/01/14 10:44:01;;;;;;;;;;;7.90;97.80;;;;;;4237555;27;19927;-51
2022/01/14 10:46:07;;;;;;;;;;;8.00;97.80;;;;;;4232242;27;19938;-50
2022/01/14 10:48:16;;;;;;;;;;;8.10;97.40;;;;;;4239378;27;20366;-50
2022/01/14 10:50:18;;;;;;;;;;;8.30;97.10;;;;;;4233139;27;19980;-51
2022/01/14 10:52:21;;;;;;;;;;;8.50;97.10;;;;;;4231628;27;19927;-51
2022/01/14 10:54:37;;;;;;;;;;;8.60;96.30;;;;;;4233011;27;19973;-52
2022/01/14 10:56:39;;;;;;;;;;;8.70;96.30;;;;;;4231722;27;19974;-52
2022/01/14 10:58:42;;;;;;;;;;;8.90;95.90;;;;;;4231815;27;19924;-52
2022/01/14 11:00:44;;;;;;;;;;;9.10;95.60;;;;;;4242162;27;19927;-51
2022/01/14 11:02:48;;;;;;;;;;;9.30;95.20;;;;;;4231249;27;19927;-52
2022/01/14 11:05:07;;;;;;;;;;;9.30;95.10;;;;;;4242841;27;19979;-52
2022/01/14 11:07:21;;;;;;;;;;;9.40;95.50;;;;;;4231820;27;19927;-51
2022/01/14 11:09:24;;;;;;;;;;;9.40;94.80;;;;;;4232211;27;19924;-52
2022/01/14 11:11:31;;;;;;;;;;;9.60;95.10;;;;;;4228233;27;19963;-52
2022/01/14 11:13:33;;;;;;;;;;;9.70;94.10;;;;;;4233779;27;19931;-51
2022/01/14 11:15:35;;;;;;;;;;;9.90;93.80;;;;;;4238877;27;19984;-49
2022/01/14 11:17:38;;;;;;;;;;;10.10;93.90;;;;;;4233893;27;19931;-51
2022/01/14 11:19:51;;;;;;;;;;;10.20;93.50;;;;;;4230382;27;20415;-52
2022/01/14 11:24:25;;;;;;;;;;;10.40;93.50;;;;;;4185878;28;19923;-51
2022/01/14 11:26:29;;;;;;;;;;;10.50;93.00;;;;;;4234766;27;19934;-53
2022/01/14 11:28:33;;;;;;;;;;;10.60;94.20;;;;;;4234859;27;20014;-52
2022/01/14 11:30:40;;;;;;;;;;;11.20;93.40;;;;;;4234517;27;20314;-51
2022/01/14 11:32:55;;;;;;;;;;;11.10;93.00;;;;;;4237263;27;19952;-51
2022/01/14 11:34:57;;;;;;;;;;;11.10;93.00;;;;;;4235743;27;19946;-51
2022/01/14 11:37:02;;;;;;;;;;;11.20;93.10;;;;;;4233373;27;19934;-52
2022/01/14 11:39:24;;;;;;;;;;;11.10;92.30;;;;;;4233272;27;19982;-51
2022/01/14 11:41:46;;;;;;;;;;;11.00;92.50;;;;;;4240220;27;19924;-51
2022/01/14 11:43:53;;;;;;;;;;;11.20;92.60;;;;;;4216951;27;19977;-51
2022/01/14 11:45:55;;;;;;;;;;;11.40;92.20;;;;;;4231541;27;19938;-50
2022/01/14 11:48:01;;;;;;;;;;;11.50;92.40;;;;;;4217617;27;19932;-50
2022/01/14 11:50:05;;;;;;;;;;;11.70;92.50;;;;;;4242956;27;19923;-51
2022/01/14 11:52:08;;;;;;;;;;;11.90;92.20;;;;;;4231861;27;19928;-51
2022/01/14 11:54:10;;;;;;;;;;;12.10;91.80;;;;;;4236108;27;19924;-51
2022/01/14 11:56:34;;;;;;;;;;;12.20;91.60;;;;;;4232347;27;19930;-51
2022/01/14 11:58:36;;;;;;;;;;;12.40;91.30;;;;;;4239472;27;19923;-52
2022/01/14 12:00:40;;;;;;;;;;;12.50;91.30;;;;;;4234062;27;19927;-51
2022/01/14 12:02:43;;;;;;;;;;;12.70;91.30;;;;;;4241995;27;19927;-52
2022/01/14 12:05:01;;;;;;;;;;;12.80;91.30;;;;;;4229105;27;19970;-53
2022/01/14 12:07:03;;;;;;;;;;;12.90;90.70;;;;;;4233017;27;19959;-52
2022/01/14 12:09:05;;;;;;;;;;;13.10;90.30;;;;;;4227041;27;19978;-53
2022/01/14 12:11:07;;;;;;;;;;;13.40;89.90;;;;;;4232843;27;20407;-52
2022/01/14 12:13:16;;;;;;;;;;;13.60;89.50;;;;;;4240485;27;20120;-53
2022/01/14 12:15:36;;;;;;;;;;;13.70;90.20;;;;;;4239464;28;19932;-53
2022/01/14 12:17:41;;;;;;;;;;;13.90;90.00;;;;;;4227046;28;19974;-52
2022/01/14 12:19:43;;;;;;;;;;;14.00;89.70;;;;;;4232999;28;19927;-52
2022/01/14 12:21:47;;;;;;;;;;;14.30;90.20;;;;;;4242581;28;19934;-53
2022/01/14 12:23:49;;;;;;;;;;;14.40;89.90;;;;;;4234690;28;19932;-53
2022/01/14 12:25:51;;;;;;;;;;;14.50;90.00;;;;;;4238954;28;19927;-52
2022/01/14 12:27:53;;;;;;;;;;;14.90;90.30;;;;;;4236239;28;20011;-52
2022/01/14 12:30:03;;;;;;;;;;;14.90;88.60;;;;;;4234875;28;19975;-52
2022/01/14 12:32:09;;;;;;;;;;;15.20;88.80;;;;;;4231991;28;19977;-50
2022/01/14 12:34:11;;;;;;;;;;;15.70;90.40;;;;;;4233856;28;20355;-52